sensor_id;sensor_type;location;lat;lon;timestamp;P1;durP1;ratioP1;P2;durP2;ratioP2
6564;SDS011;3316;44.118;27.258;2023-09-07T00:00:41;8.40;;;4.75;;
6564;SDS011;3316;44.118;27.258;2023-09-07T00:03:07;6.63;;;4.47;;
6564;SDS011;3316;44.118;27.258;2023-09-07T00:05:32;6.73;;;4.90;;
6564;SDS011;3316;44.118;27.258;2023-09-07T00:07:57;6.47;;;4.43;;
6564;SDS011;3316;44.118;27.258;2023-09-07T00:10:23;10.03;;;4.77;;
6564;SDS011;3316;44.118;27.258;2023-09-07T00:12:50;5.63;;;4.30;;
6564;SDS011;3316;44.118;27.258;2023-09-07T00:15:16;7.70;;;5.00;;
6564;SDS011;3316;44.118;27.258;2023-09-07T00:17:44;6.90;;;4.47;;
6564;SDS011;3316;44.118;27.258;2023-09-07T00:20:10;7.33;;;4.30;;
6564;SDS011;3316;44.118;27.258;2023-09-07T00:22:36;6.97;;;4.85;;
6564;SDS011;3316;44.118;27.258;2023-09-07T00:25:04;8.65;;;5.13;;
6564;SDS011;3316;44.118;27.258;2023-09-07T00:27:31;6.57;;;4.87;;
6564;SDS011;3316;44.118;27.258;2023-09-07T00:29:58;6.27;;;4.47;;
6564;SDS011;3316;44.118;27.258;2023-09-07T00:32:24;9.90;;;4.70;;
6564;SDS011;3316;44.118;27.258;2023-09-07T00:34:49;7.40;;;4.80;;
6564;SDS011;3316;44.118;27.258;2023-09-07T00:37:14;12.90;;;4.97;;
6564;SDS011;3316;44.118;27.258;2023-09-07T00:39:40;11.40;;;4.80;;
6564;SDS011;3316;44.118;27.258;2023-09-07T00:42:05;7.47;;;4.60;;
6564;SDS011;3316;44.118;27.258;2023-09-07T00:44:31;10.00;;;5.20;;
6564;SDS011;3316;44.118;27.258;2023-09-07T00:46:56;8.33;;;4.63;;
6564;SDS011;3316;44.118;27.258;2023-09-07T00:49:22;8.73;;;4.90;;
6564;SDS011;3316;44.118;27.258;2023-09-07T00:51:49;11.33;;;4.93;;
6564;SDS011;3316;44.118;27.258;2023-09-07T00:54:15;7.17;;;4.93;;
6564;SDS011;3316;44.118;27.258;2023-09-07T00:56:41;8.57;;;4.43;;
6564;SDS011;3316;44.118;27.258;2023-09-07T00:59:07;10.60;;;5.07;;
6564;SDS011;3316;44.118;27.258;2023-09-07T01:01:34;11.07;;;4.60;;
6564;SDS011;3316;44.118;27.258;2023-09-07T01:04:00;8.70;;;4.63;;
6564;SDS011;3316;44.118;27.258;2023-09-07T01:06:28;7.17;;;4.93;;
6564;SDS011;3316;44.118;27.258;2023-09-07T01:08:56;8.63;;;4.80;;
6564;SDS011;3316;44.118;27.258;2023-09-07T01:11:25;9.43;;;5.10;;
6564;SDS011;3316;44.118;27.258;2023-09-07T01:13:52;10.20;;;5.60;;
6564;SDS011;3316;44.118;27.258;2023-09-07T01:16:21;5.60;;;4.37;;
6564;SDS011;3316;44.118;27.258;2023-09-07T01:18:47;10.23;;;4.97;;
6564;SDS011;3316;44.118;27.258;2023-09-07T01:21:12;11.43;;;5.13;;
6564;SDS011;3316;44.118;27.258;2023-09-07T01:23:40;10.07;;;4.67;;
6564;SDS011;3316;44.118;27.258;2023-09-07T01:26:07;7.67;;;5.17;;
6564;SDS011;3316;44.118;27.258;2023-09-07T01:28:34;5.77;;;4.63;;
6564;SDS011;3316;44.118;27.258;2023-09-07T01:31:00;7.37;;;4.30;;
6564;SDS011;3316;44.118;27.258;2023-09-07T01:33:26;10.10;;;5.07;;
6564;SDS011;3316;44.118;27.258;2023-09-07T01:35:52;7.97;;;4.77;;
6564;SDS011;3316;44.118;27.258;2023-09-07T01:38:17;7.07;;;5.10;;
6564;SDS011;3316;44.118;27.258;2023-09-07T01:40:43;8.97;;;4.63;;
6564;SDS011;3316;44.118;27.258;2023-09-07T01:43:08;8.37;;;4.83;;
6564;SDS011;3316;44.118;27.258;2023-09-07T01:45:34;8.00;;;5.10;;
6564;SDS011;3316;44.118;27.258;2023-09-07T01:47:59;7.70;;;4.90;;
6564;SDS011;3316;44.118;27.258;2023-09-07T01:50:25;9.30;;;4.50;;
6564;SDS011;3316;44.118;27.258;2023-09-07T01:52:53;7.77;;;5.23;;
6564;SDS011;3316;44.118;27.258;2023-09-07T01:55:18;7.13;;;5.13;;
6564;SDS011;3316;44.118;27.258;2023-09-07T01:57:44;10.73;;;5.10;;
6564;SDS011;3316;44.118;27.258;2023-09-07T02:00:10;7.10;;;5.27;;
6564;SDS011;3316;44.118;27.258;2023-09-07T02:02:36;8.83;;;5.33;;
6564;SDS011;3316;44.118;27.258;2023-09-07T02:05:01;8.50;;;5.03;;
6564;SDS011;3316;44.118;27.258;2023-09-07T02:07:27;8.03;;;5.10;;
6564;SDS011;3316;44.118;27.258;2023-09-07T02:09:52;8.50;;;4.90;;
6564;SDS011;3316;44.118;27.258;2023-09-07T02:12:18;10.00;;;5.80;;
6564;SDS011;3316;44.118;27.258;2023-09-07T02:14:43;10.30;;;5.13;;
6564;SDS011;3316;44.118;27.258;2023-09-07T02:17:09;8.37;;;4.87;;
6564;SDS011;3316;44.118;27.258;2023-09-07T02:19:34;7.67;;;5.13;;
6564;SDS011;3316;44.118;27.258;2023-09-07T02:22:00;8.63;;;5.37;;
6564;SDS011;3316;44.118;27.258;2023-09-07T02:24:26;9.07;;;5.13;;
6564;SDS011;3316;44.118;27.258;2023-09-07T02:26:51;8.87;;;5.07;;
6564;SDS011;3316;44.118;27.258;2023-09-07T02:29:17;9.13;;;5.50;;
6564;SDS011;3316;44.118;27.258;2023-09-07T02:31:42;7.97;;;5.30;;
6564;SDS011;3316;44.118;27.258;2023-09-07T02:34:07;7.73;;;5.07;;
6564;SDS011;3316;44.118;27.258;2023-09-07T02:36:33;9.13;;;5.03;;
6564;SDS011;3316;44.118;27.258;2023-09-07T02:39:02;12.97;;;5.67;;
6564;SDS011;3316;44.118;27.258;2023-09-07T02:41:31;9.83;;;5.00;;
6564;SDS011;3316;44.118;27.258;2023-09-07T02:43:56;9.93;;;5.43;;
6564;SDS011;3316;44.118;27.258;2023-09-07T02:46:22;8.00;;;5.13;;
6564;SDS011;3316;44.118;27.258;2023-09-07T02:48:47;6.73;;;5.23;;
6564;SDS011;3316;44.118;27.258;2023-09-07T02:51:13;10.67;;;5.87;;
6564;SDS011;3316;44.118;27.258;2023-09-07T02:53:38;7.10;;;5.10;;
6564;SDS011;3316;44.118;27.258;2023-09-07T02:56:04;7.13;;;5.30;;
6564;SDS011;3316;44.118;27.258;2023-09-07T02:58:30;10.13;;;5.13;;
6564;SDS011;3316;44.118;27.258;2023-09-07T03:00:55;8.90;;;4.90;;
6564;SDS011;3316;44.118;27.258;2023-09-07T03:03:21;8.93;;;5.23;;
6564;SDS011;3316;44.118;27.258;2023-09-07T03:05:46;9.00;;;4.57;;
6564;SDS011;3316;44.118;27.258;2023-09-07T03:08:12;8.07;;;5.13;;
6564;SDS011;3316;44.118;27.258;2023-09-07T03:10:37;9.00;;;5.60;;
6564;SDS011;3316;44.118;27.258;2023-09-07T03:13:05;9.40;;;5.63;;
6564;SDS011;3316;44.118;27.258;2023-09-07T03:15:31;7.10;;;4.77;;
6564;SDS011;3316;44.118;27.258;2023-09-07T03:17:57;8.80;;;5.17;;
6564;SDS011;3316;44.118;27.258;2023-09-07T03:20:22;8.73;;;5.80;;
6564;SDS011;3316;44.118;27.258;2023-09-07T03:22:48;6.80;;;5.07;;
6564;SDS011;3316;44.118;27.258;2023-09-07T03:25:13;8.67;;;5.93;;
6564;SDS011;3316;44.118;27.258;2023-09-07T03:27:39;8.43;;;5.53;;
6564;SDS011;3316;44.118;27.258;2023-09-07T03:30:05;7.27;;;5.20;;
6564;SDS011;3316;44.118;27.258;2023-09-07T03:32:32;9.93;;;6.63;;
6564;SDS011;3316;44.118;27.258;2023-09-07T03:35:02;11.60;;;5.83;;
6564;SDS011;3316;44.118;27.258;2023-09-07T03:37:32;8.10;;;5.13;;
6564;SDS011;3316;44.118;27.258;2023-09-07T03:39:57;9.47;;;5.77;;
6564;SDS011;3316;44.118;27.258;2023-09-07T03:42:23;8.33;;;5.07;;
6564;SDS011;3316;44.118;27.258;2023-09-07T03:44:48;11.60;;;6.20;;
6564;SDS011;3316;44.118;27.258;2023-09-07T03:47:14;7.67;;;5.20;;
6564;SDS011;3316;44.118;27.258;2023-09-07T03:49:43;14.40;;;6.07;;
6564;SDS011;3316;44.118;27.258;2023-09-07T03:52:09;10.30;;;5.43;;
6564;SDS011;3316;44.118;27.258;2023-09-07T03:54:35;9.03;;;6.00;;
6564;SDS011;3316;44.118;27.258;2023-09-07T03:57:00;11.97;;;5.97;;
6564;SDS011;3316;44.118;27.258;2023-09-07T03:59:27;11.10;;;5.67;;
6564;SDS011;3316;44.118;27.258;2023-09-07T04:01:53;11.97;;;6.30;;
6564;SDS011;3316;44.118;27.258;2023-09-07T04:04:19;11.67;;;6.63;;
6564;SDS011;3316;44.118;27.258;2023-09-07T04:06:48;10.83;;;6.47;;
6564;SDS011;3316;44.118;27.258;2023-09-07T04:09:13;11.77;;;7.43;;
6564;SDS011;3316;44.118;27.258;2023-09-07T04:11:39;12.80;;;7.00;;
6564;SDS011;3316;44.118;27.258;2023-09-07T04:14:05;9.90;;;7.13;;
6564;SDS011;3316;44.118;27.258;2023-09-07T04:16:30;10.87;;;6.33;;
6564;SDS011;3316;44.118;27.258;2023-09-07T04:18:56;7.30;;;5.47;;
6564;SDS011;3316;44.118;27.258;2023-09-07T04:21:21;8.90;;;5.97;;
6564;SDS011;3316;44.118;27.258;2023-09-07T04:23:47;9.40;;;5.60;;
6564;SDS011;3316;44.118;27.258;2023-09-07T04:26:12;9.43;;;5.30;;
6564;SDS011;3316;44.118;27.258;2023-09-07T04:28:38;10.40;;;5.47;;
6564;SDS011;3316;44.118;27.258;2023-09-07T04:31:04;9.73;;;5.55;;
6564;SDS011;3316;44.118;27.258;2023-09-07T04:33:31;8.98;;;5.88;;
6564;SDS011;3316;44.118;27.258;2023-09-07T04:36:05;8.15;;;5.55;;
6564;SDS011;3316;44.118;27.258;2023-09-07T04:38:35;7.85;;;5.30;;
6564;SDS011;3316;44.118;27.258;2023-09-07T04:41:11;9.27;;;5.15;;
6564;SDS011;3316;44.118;27.258;2023-09-07T04:43:38;13.73;;;5.28;;
6564;SDS011;3316;44.118;27.258;2023-09-07T04:46:13;15.90;;;5.20;;
6564;SDS011;3316;44.118;27.258;2023-09-07T04:48:39;11.57;;;4.95;;
6564;SDS011;3316;44.118;27.258;2023-09-07T04:51:06;10.18;;;5.40;;
6564;SDS011;3316;44.118;27.258;2023-09-07T04:53:34;10.27;;;5.28;;
6564;SDS011;3316;44.118;27.258;2023-09-07T04:56:01;11.93;;;5.47;;
6564;SDS011;3316;44.118;27.258;2023-09-07T04:58:27;13.32;;;5.95;;
6564;SDS011;3316;44.118;27.258;2023-09-07T05:00:53;8.70;;;5.10;;
6564;SDS011;3316;44.118;27.258;2023-09-07T05:03:19;6.47;;;4.93;;
6564;SDS011;3316;44.118;27.258;2023-09-07T05:05:44;9.70;;;5.80;;
6564;SDS011;3316;44.118;27.258;2023-09-07T05:08:15;10.15;;;5.10;;
6564;SDS011;3316;44.118;27.258;2023-09-07T05:10:41;9.90;;;6.55;;
6564;SDS011;3316;44.118;27.258;2023-09-07T05:13:23;10.20;;;5.98;;
6564;SDS011;3316;44.118;27.258;2023-09-07T05:15:53;8.13;;;5.00;;
6564;SDS011;3316;44.118;27.258;2023-09-07T05:18:20;10.77;;;5.28;;
6564;SDS011;3316;44.118;27.258;2023-09-07T05:20:46;19.98;;;7.45;;
6564;SDS011;3316;44.118;27.258;2023-09-07T05:23:17;9.20;;;4.95;;
6564;SDS011;3316;44.118;27.258;2023-09-07T05:25:52;8.00;;;5.22;;
6564;SDS011;3316;44.118;27.258;2023-09-07T05:28:18;12.02;;;5.10;;
6564;SDS011;3316;44.118;27.258;2023-09-07T05:30:45;7.40;;;5.30;;
6564;SDS011;3316;44.118;27.258;2023-09-07T05:33:11;14.07;;;5.47;;
6564;SDS011;3316;44.118;27.258;2023-09-07T05:35:37;9.77;;;6.75;;
6564;SDS011;3316;44.118;27.258;2023-09-07T05:38:03;9.25;;;5.55;;
6564;SDS011;3316;44.118;27.258;2023-09-07T05:40:33;12.68;;;6.22;;
6564;SDS011;3316;44.118;27.258;2023-09-07T05:42:59;9.70;;;4.80;;
6564;SDS011;3316;44.118;27.258;2023-09-07T05:45:24;11.52;;;5.88;;
6564;SDS011;3316;44.118;27.258;2023-09-07T05:47:50;9.65;;;4.78;;
6564;SDS011;3316;44.118;27.258;2023-09-07T05:50:15;12.13;;;5.47;;
6564;SDS011;3316;44.118;27.258;2023-09-07T05:52:41;8.10;;;5.20;;
6564;SDS011;3316;44.118;27.258;2023-09-07T05:55:06;8.75;;;5.60;;
6564;SDS011;3316;44.118;27.258;2023-09-07T05:57:32;11.10;;;5.00;;
6564;SDS011;3316;44.118;27.258;2023-09-07T05:59:57;10.73;;;4.90;;
6564;SDS011;3316;44.118;27.258;2023-09-07T06:02:23;10.45;;;5.30;;
6564;SDS011;3316;44.118;27.258;2023-09-07T06:04:48;16.08;;;6.30;;
6564;SDS011;3316;44.118;27.258;2023-09-07T06:07:14;13.80;;;5.57;;
6564;SDS011;3316;44.118;27.258;2023-09-07T06:09:39;7.13;;;4.38;;
6564;SDS011;3316;44.118;27.258;2023-09-07T06:12:05;7.70;;;5.30;;
6564;SDS011;3316;44.118;27.258;2023-09-07T06:14:30;8.70;;;5.30;;
6564;SDS011;3316;44.118;27.258;2023-09-07T06:16:56;14.00;;;5.60;;
6564;SDS011;3316;44.118;27.258;2023-09-07T06:19:21;9.25;;;5.45;;
6564;SDS011;3316;44.118;27.258;2023-09-07T06:21:47;9.05;;;5.82;;
6564;SDS011;3316;44.118;27.258;2023-09-07T06:24:12;7.93;;;4.93;;
6564;SDS011;3316;44.118;27.258;2023-09-07T06:26:37;9.55;;;5.38;;
6564;SDS011;3316;44.118;27.258;2023-09-07T06:29:03;10.85;;;5.10;;
6564;SDS011;3316;44.118;27.258;2023-09-07T06:31:28;9.68;;;5.10;;
6564;SDS011;3316;44.118;27.258;2023-09-07T06:33:54;9.88;;;5.22;;
6564;SDS011;3316;44.118;27.258;2023-09-07T06:36:19;22.35;;;5.93;;
6564;SDS011;3316;44.118;27.258;2023-09-07T06:38:45;8.68;;;5.13;;
6564;SDS011;3316;44.118;27.258;2023-09-07T06:41:10;9.85;;;4.88;;
6564;SDS011;3316;44.118;27.258;2023-09-07T06:43:37;10.38;;;5.15;;
6564;SDS011;3316;44.118;27.258;2023-09-07T06:46:06;14.45;;;5.78;;
6564;SDS011;3316;44.118;27.258;2023-09-07T06:48:33;9.27;;;5.60;;
6564;SDS011;3316;44.118;27.258;2023-09-07T06:51:06;5.93;;;4.88;;
6564;SDS011;3316;44.118;27.258;2023-09-07T06:53:33;10.85;;;5.50;;
6564;SDS011;3316;44.118;27.258;2023-09-07T06:55:58;9.68;;;5.20;;
6564;SDS011;3316;44.118;27.258;2023-09-07T06:58:25;5.30;;;4.47;;
6564;SDS011;3316;44.118;27.258;2023-09-07T07:00:50;9.07;;;4.97;;
6564;SDS011;3316;44.118;27.258;2023-09-07T07:03:16;7.40;;;4.97;;
6564;SDS011;3316;44.118;27.258;2023-09-07T07:05:41;7.40;;;5.43;;
6564;SDS011;3316;44.118;27.258;2023-09-07T07:08:07;9.77;;;5.40;;
6564;SDS011;3316;44.118;27.258;2023-09-07T07:10:33;8.10;;;5.63;;
6564;SDS011;3316;44.118;27.258;2023-09-07T07:12:58;7.97;;;4.75;;
6564;SDS011;3316;44.118;27.258;2023-09-07T07:15:25;6.25;;;4.78;;
6564;SDS011;3316;44.118;27.258;2023-09-07T07:17:50;8.23;;;5.20;;
6564;SDS011;3316;44.118;27.258;2023-09-07T07:20:16;10.55;;;5.05;;
6564;SDS011;3316;44.118;27.258;2023-09-07T07:22:41;7.90;;;5.43;;
6564;SDS011;3316;44.118;27.258;2023-09-07T07:25:07;9.05;;;5.20;;
6564;SDS011;3316;44.118;27.258;2023-09-07T07:27:32;8.60;;;4.93;;
6564;SDS011;3316;44.118;27.258;2023-09-07T07:29:58;10.40;;;5.38;;
6564;SDS011;3316;44.118;27.258;2023-09-07T07:32:24;9.73;;;5.45;;
6564;SDS011;3316;44.118;27.258;2023-09-07T07:34:49;10.25;;;5.22;;
6564;SDS011;3316;44.118;27.258;2023-09-07T07:37:15;8.73;;;5.20;;
6564;SDS011;3316;44.118;27.258;2023-09-07T07:39:40;8.05;;;4.68;;
6564;SDS011;3316;44.118;27.258;2023-09-07T07:42:06;9.23;;;4.90;;
6564;SDS011;3316;44.118;27.258;2023-09-07T07:44:31;7.95;;;5.10;;
6564;SDS011;3316;44.118;27.258;2023-09-07T07:46:57;11.20;;;5.30;;
6564;SDS011;3316;44.118;27.258;2023-09-07T07:49:22;10.02;;;5.03;;
6564;SDS011;3316;44.118;27.258;2023-09-07T07:51:48;16.05;;;5.43;;
6564;SDS011;3316;44.118;27.258;2023-09-07T07:54:13;12.10;;;5.20;;
6564;SDS011;3316;44.118;27.258;2023-09-07T07:56:39;9.88;;;4.82;;
6564;SDS011;3316;44.118;27.258;2023-09-07T07:59:05;8.65;;;4.72;;
6564;SDS011;3316;44.118;27.258;2023-09-07T08:01:30;8.10;;;5.35;;
6564;SDS011;3316;44.118;27.258;2023-09-07T08:03:55;5.32;;;4.72;;
6564;SDS011;3316;44.118;27.258;2023-09-07T08:06:21;8.35;;;4.70;;
6564;SDS011;3316;44.118;27.258;2023-09-07T08:08:46;6.97;;;5.00;;
6564;SDS011;3316;44.118;27.258;2023-09-07T08:11:12;9.00;;;5.13;;
6564;SDS011;3316;44.118;27.258;2023-09-07T08:13:39;11.30;;;5.20;;
6564;SDS011;3316;44.118;27.258;2023-09-07T08:16:05;15.23;;;5.25;;
6564;SDS011;3316;44.118;27.258;2023-09-07T08:18:34;10.25;;;5.38;;
6564;SDS011;3316;44.118;27.258;2023-09-07T08:21:00;13.32;;;5.85;;
6564;SDS011;3316;44.118;27.258;2023-09-07T08:23:26;8.48;;;4.72;;
6564;SDS011;3316;44.118;27.258;2023-09-07T08:25:52;9.52;;;5.00;;
6564;SDS011;3316;44.118;27.258;2023-09-07T08:28:17;7.55;;;4.85;;
6564;SDS011;3316;44.118;27.258;2023-09-07T08:30:43;9.55;;;5.70;;
6564;SDS011;3316;44.118;27.258;2023-09-07T08:33:09;7.90;;;4.90;;
6564;SDS011;3316;44.118;27.258;2023-09-07T08:35:35;14.40;;;5.18;;
6564;SDS011;3316;44.118;27.258;2023-09-07T08:38:02;6.80;;;4.85;;
6564;SDS011;3316;44.118;27.258;2023-09-07T08:40:30;6.50;;;4.50;;
6564;SDS011;3316;44.118;27.258;2023-09-07T08:43:00;8.55;;;5.13;;
6564;SDS011;3316;44.118;27.258;2023-09-07T08:45:28;12.32;;;5.90;;
6564;SDS011;3316;44.118;27.258;2023-09-07T08:47:56;10.95;;;5.55;;
6564;SDS011;3316;44.118;27.258;2023-09-07T08:50:23;11.02;;;5.38;;
6564;SDS011;3316;44.118;27.258;2023-09-07T08:52:49;9.73;;;5.30;;
6564;SDS011;3316;44.118;27.258;2023-09-07T08:55:17;11.95;;;4.72;;
6564;SDS011;3316;44.118;27.258;2023-09-07T08:57:43;7.80;;;5.03;;
6564;SDS011;3316;44.118;27.258;2023-09-07T09:00:08;9.77;;;4.68;;
6564;SDS011;3316;44.118;27.258;2023-09-07T09:02:40;5.70;;;4.05;;
6564;SDS011;3316;44.118;27.258;2023-09-07T09:05:06;7.57;;;4.60;;
6564;SDS011;3316;44.118;27.258;2023-09-07T09:07:34;7.00;;;4.95;;
6564;SDS011;3316;44.118;27.258;2023-09-07T09:10:06;14.80;;;4.70;;
6564;SDS011;3316;44.118;27.258;2023-09-07T09:12:32;8.68;;;4.75;;
6564;SDS011;3316;44.118;27.258;2023-09-07T09:14:59;13.05;;;5.18;;
6564;SDS011;3316;44.118;27.258;2023-09-07T09:17:28;7.03;;;4.50;;
6564;SDS011;3316;44.118;27.258;2023-09-07T09:19:54;19.38;;;4.80;;
6564;SDS011;3316;44.118;27.258;2023-09-07T09:22:20;10.18;;;4.28;;
6564;SDS011;3316;44.118;27.258;2023-09-07T09:24:48;12.00;;;4.28;;
6564;SDS011;3316;44.118;27.258;2023-09-07T09:27:13;8.75;;;4.47;;
6564;SDS011;3316;44.118;27.258;2023-09-07T09:29:39;6.53;;;4.45;;
6564;SDS011;3316;44.118;27.258;2023-09-07T09:32:06;12.80;;;4.35;;
6564;SDS011;3316;44.118;27.258;2023-09-07T09:34:35;6.60;;;3.97;;
6564;SDS011;3316;44.118;27.258;2023-09-07T09:37:01;5.57;;;4.50;;
6564;SDS011;3316;44.118;27.258;2023-09-07T09:39:31;12.70;;;5.00;;
6564;SDS011;3316;44.118;27.258;2023-09-07T09:41:57;6.60;;;4.53;;
6564;SDS011;3316;44.118;27.258;2023-09-07T09:44:23;7.63;;;4.35;;
6564;SDS011;3316;44.118;27.258;2023-09-07T09:46:52;6.68;;;3.97;;
6564;SDS011;3316;44.118;27.258;2023-09-07T09:49:21;8.90;;;4.55;;
6564;SDS011;3316;44.118;27.258;2023-09-07T09:51:48;7.00;;;4.05;;
6564;SDS011;3316;44.118;27.258;2023-09-07T09:54:16;6.22;;;4.28;;
6564;SDS011;3316;44.118;27.258;2023-09-07T09:56:45;6.93;;;4.60;;
6564;SDS011;3316;44.118;27.258;2023-09-07T09:59:12;8.85;;;4.03;;
6564;SDS011;3316;44.118;27.258;2023-09-07T10:01:45;8.35;;;4.57;;
6564;SDS011;3316;44.118;27.258;2023-09-07T10:04:14;6.13;;;4.28;;
6564;SDS011;3316;44.118;27.258;2023-09-07T10:07:00;11.27;;;4.72;;
6564;SDS011;3316;44.118;27.258;2023-09-07T10:09:32;9.55;;;4.70;;
6564;SDS011;3316;44.118;27.258;2023-09-07T10:11:58;6.68;;;4.10;;
6564;SDS011;3316;44.118;27.258;2023-09-07T10:14:25;5.90;;;3.97;;
6564;SDS011;3316;44.118;27.258;2023-09-07T10:16:51;8.23;;;4.68;;
6564;SDS011;3316;44.118;27.258;2023-09-07T10:19:24;11.10;;;4.30;;
6564;SDS011;3316;44.118;27.258;2023-09-07T10:21:52;6.28;;;4.28;;
6564;SDS011;3316;44.118;27.258;2023-09-07T10:24:28;8.65;;;4.18;;
6564;SDS011;3316;44.118;27.258;2023-09-07T10:26:56;6.28;;;4.05;;
6564;SDS011;3316;44.118;27.258;2023-09-07T10:29:25;5.60;;;3.67;;
6564;SDS011;3316;44.118;27.258;2023-09-07T10:31:51;9.45;;;4.40;;
6564;SDS011;3316;44.118;27.258;2023-09-07T10:34:17;10.68;;;4.40;;
6564;SDS011;3316;44.118;27.258;2023-09-07T10:36:42;7.22;;;3.95;;
6564;SDS011;3316;44.118;27.258;2023-09-07T10:39:08;9.65;;;4.60;;
6564;SDS011;3316;44.118;27.258;2023-09-07T10:41:43;6.22;;;4.80;;
6564;SDS011;3316;44.118;27.258;2023-09-07T10:44:10;4.97;;;3.80;;
6564;SDS011;3316;44.118;27.258;2023-09-07T10:46:36;6.75;;;3.55;;
6564;SDS011;3316;44.118;27.258;2023-09-07T10:49:02;5.38;;;3.97;;
6564;SDS011;3316;44.118;27.258;2023-09-07T10:51:28;7.68;;;4.20;;
6564;SDS011;3316;44.118;27.258;2023-09-07T10:53:54;9.50;;;4.70;;
6564;SDS011;3316;44.118;27.258;2023-09-07T10:56:20;5.57;;;4.05;;
6564;SDS011;3316;44.118;27.258;2023-09-07T10:58:50;6.35;;;4.22;;
6564;SDS011;3316;44.118;27.258;2023-09-07T11:01:19;10.30;;;4.30;;
6564;SDS011;3316;44.118;27.258;2023-09-07T11:03:45;10.52;;;4.15;;
6564;SDS011;3316;44.118;27.258;2023-09-07T11:06:18;10.07;;;4.65;;
6564;SDS011;3316;44.118;27.258;2023-09-07T11:08:48;8.52;;;4.45;;
6564;SDS011;3316;44.118;27.258;2023-09-07T11:11:13;6.25;;;4.20;;
6564;SDS011;3316;44.118;27.258;2023-09-07T11:13:39;5.55;;;3.70;;
6564;SDS011;3316;44.118;27.258;2023-09-07T11:16:07;9.25;;;5.13;;
6564;SDS011;3316;44.118;27.258;2023-09-07T11:18:34;9.27;;;4.50;;
6564;SDS011;3316;44.118;27.258;2023-09-07T11:21:02;6.57;;;4.38;;
6564;SDS011;3316;44.118;27.258;2023-09-07T11:23:29;7.85;;;4.22;;
6564;SDS011;3316;44.118;27.258;2023-09-07T11:26:07;5.43;;;4.13;;
6564;SDS011;3316;44.118;27.258;2023-09-07T11:28:33;5.93;;;4.22;;
6564;SDS011;3316;44.118;27.258;2023-09-07T11:30:59;10.05;;;4.18;;
6564;SDS011;3316;44.118;27.258;2023-09-07T11:33:25;5.90;;;4.03;;
6564;SDS011;3316;44.118;27.258;2023-09-07T11:35:52;5.70;;;4.07;;
6564;SDS011;3316;44.118;27.258;2023-09-07T11:38:19;9.98;;;4.60;;
6564;SDS011;3316;44.118;27.258;2023-09-07T11:40:45;7.53;;;4.40;;
6564;SDS011;3316;44.118;27.258;2023-09-07T11:43:14;7.15;;;4.10;;
6564;SDS011;3316;44.118;27.258;2023-09-07T11:45:41;10.60;;;4.43;;
6564;SDS011;3316;44.118;27.258;2023-09-07T11:48:08;5.50;;;4.03;;
6564;SDS011;3316;44.118;27.258;2023-09-07T11:50:34;11.57;;;4.53;;
6564;SDS011;3316;44.118;27.258;2023-09-07T11:53:00;5.53;;;4.30;;
6564;SDS011;3316;44.118;27.258;2023-09-07T11:55:26;8.52;;;4.13;;
6564;SDS011;3316;44.118;27.258;2023-09-07T11:57:52;14.90;;;4.72;;
6564;SDS011;3316;44.118;27.258;2023-09-07T12:00:17;10.25;;;4.35;;
6564;SDS011;3316;44.118;27.258;2023-09-07T12:02:44;6.68;;;3.85;;
6564;SDS011;3316;44.118;27.258;2023-09-07T12:05:10;8.07;;;4.85;;
6564;SDS011;3316;44.118;27.258;2023-09-07T12:07:39;7.82;;;4.03;;
6564;SDS011;3316;44.118;27.258;2023-09-07T12:10:05;5.43;;;3.95;;
6564;SDS011;3316;44.118;27.258;2023-09-07T12:12:35;6.97;;;3.95;;
6564;SDS011;3316;44.118;27.258;2023-09-07T12:15:05;5.72;;;4.10;;
6564;SDS011;3316;44.118;27.258;2023-09-07T12:17:31;5.72;;;3.95;;
6564;SDS011;3316;44.118;27.258;2023-09-07T12:19:57;9.55;;;4.45;;
6564;SDS011;3316;44.118;27.258;2023-09-07T12:22:23;9.10;;;4.32;;
6564;SDS011;3316;44.118;27.258;2023-09-07T12:24:48;8.98;;;4.10;;
6564;SDS011;3316;44.118;27.258;2023-09-07T12:27:14;5.00;;;3.72;;
6564;SDS011;3316;44.118;27.258;2023-09-07T12:29:40;5.65;;;4.03;;
6564;SDS011;3316;44.118;27.258;2023-09-07T12:32:06;7.85;;;4.32;;
6564;SDS011;3316;44.118;27.258;2023-09-07T12:34:31;8.45;;;5.70;;
6564;SDS011;3316;44.118;27.258;2023-09-07T12:36:56;10.63;;;4.60;;
6564;SDS011;3316;44.118;27.258;2023-09-07T12:39:22;11.30;;;4.35;;
6564;SDS011;3316;44.118;27.258;2023-09-07T12:41:47;11.05;;;4.50;;
6564;SDS011;3316;44.118;27.258;2023-09-07T12:44:13;8.25;;;3.97;;
6564;SDS011;3316;44.118;27.258;2023-09-07T12:46:38;10.00;;;4.22;;
6564;SDS011;3316;44.118;27.258;2023-09-07T12:49:04;8.50;;;4.15;;
6564;SDS011;3316;44.118;27.258;2023-09-07T12:51:29;10.40;;;4.35;;
6564;SDS011;3316;44.118;27.258;2023-09-07T12:53:55;7.53;;;4.28;;
6564;SDS011;3316;44.118;27.258;2023-09-07T12:56:21;10.00;;;4.70;;
6564;SDS011;3316;44.118;27.258;2023-09-07T12:58:46;6.20;;;4.07;;
6564;SDS011;3316;44.118;27.258;2023-09-07T13:01:12;8.32;;;4.60;;
6564;SDS011;3316;44.118;27.258;2023-09-07T13:03:40;9.18;;;4.95;;
6564;SDS011;3316;44.118;27.258;2023-09-07T13:06:06;5.28;;;3.95;;
6564;SDS011;3316;44.118;27.258;2023-09-07T13:08:31;8.75;;;4.35;;
6564;SDS011;3316;44.118;27.258;2023-09-07T13:10:57;7.53;;;3.92;;
6564;SDS011;3316;44.118;27.258;2023-09-07T13:13:22;4.93;;;4.10;;
6564;SDS011;3316;44.118;27.258;2023-09-07T13:15:51;9.55;;;4.38;;
6564;SDS011;3316;44.118;27.258;2023-09-07T13:18:16;7.68;;;4.57;;
6564;SDS011;3316;44.118;27.258;2023-09-07T13:20:42;6.70;;;4.32;;
6564;SDS011;3316;44.118;27.258;2023-09-07T13:23:07;9.32;;;4.55;;
6564;SDS011;3316;44.118;27.258;2023-09-07T13:25:33;9.27;;;4.60;;
6564;SDS011;3316;44.118;27.258;2023-09-07T13:27:58;5.25;;;4.10;;
6564;SDS011;3316;44.118;27.258;2023-09-07T13:30:24;5.95;;;4.03;;
6564;SDS011;3316;44.118;27.258;2023-09-07T13:32:49;7.00;;;4.60;;
6564;SDS011;3316;44.118;27.258;2023-09-07T13:35:15;7.32;;;3.90;;
6564;SDS011;3316;44.118;27.258;2023-09-07T13:37:41;4.47;;;3.88;;
6564;SDS011;3316;44.118;27.258;2023-09-07T13:40:06;10.60;;;5.10;;
6564;SDS011;3316;44.118;27.258;2023-09-07T13:42:33;11.63;;;4.47;;
6564;SDS011;3316;44.118;27.258;2023-09-07T13:44:58;7.93;;;3.90;;
6564;SDS011;3316;44.118;27.258;2023-09-07T13:47:24;10.98;;;4.40;;
6564;SDS011;3316;44.118;27.258;2023-09-07T13:49:49;7.40;;;4.20;;
6564;SDS011;3316;44.118;27.258;2023-09-07T13:52:15;9.45;;;4.38;;
6564;SDS011;3316;44.118;27.258;2023-09-07T13:54:40;6.15;;;4.03;;
6564;SDS011;3316;44.118;27.258;2023-09-07T13:57:05;11.60;;;4.60;;
6564;SDS011;3316;44.118;27.258;2023-09-07T13:59:31;6.30;;;4.30;;
6564;SDS011;3316;44.118;27.258;2023-09-07T14:01:57;10.90;;;5.07;;
6564;SDS011;3316;44.118;27.258;2023-09-07T14:04:23;12.57;;;4.45;;
6564;SDS011;3316;44.118;27.258;2023-09-07T14:06:48;17.83;;;5.43;;
6564;SDS011;3316;44.118;27.258;2023-09-07T14:09:14;35.10;;;6.63;;
6564;SDS011;3316;44.118;27.258;2023-09-07T14:11:39;8.38;;;4.85;;
6564;SDS011;3316;44.118;27.258;2023-09-07T14:14:05;7.45;;;4.47;;
6564;SDS011;3316;44.118;27.258;2023-09-07T14:16:31;6.53;;;4.25;;
6564;SDS011;3316;44.118;27.258;2023-09-07T14:18:56;13.73;;;4.85;;
6564;SDS011;3316;44.118;27.258;2023-09-07T14:21:22;6.50;;;4.53;;
6564;SDS011;3316;44.118;27.258;2023-09-07T14:23:47;7.90;;;4.40;;
6564;SDS011;3316;44.118;27.258;2023-09-07T14:26:13;9.73;;;3.85;;
6564;SDS011;3316;44.118;27.258;2023-09-07T14:28:38;6.45;;;4.10;;
6564;SDS011;3316;44.118;27.258;2023-09-07T14:31:04;10.30;;;4.68;;
6564;SDS011;3316;44.118;27.258;2023-09-07T14:33:32;8.77;;;4.00;;
6564;SDS011;3316;44.118;27.258;2023-09-07T14:35:58;6.80;;;4.20;;
6564;SDS011;3316;44.118;27.258;2023-09-07T14:38:24;8.07;;;4.75;;
6564;SDS011;3316;44.118;27.258;2023-09-07T14:40:52;7.45;;;4.22;;
6564;SDS011;3316;44.118;27.258;2023-09-07T14:43:20;9.95;;;4.32;;
6564;SDS011;3316;44.118;27.258;2023-09-07T14:45:46;8.73;;;4.25;;
6564;SDS011;3316;44.118;27.258;2023-09-07T14:48:12;6.60;;;4.07;;
6564;SDS011;3316;44.118;27.258;2023-09-07T14:50:37;9.40;;;4.10;;
6564;SDS011;3316;44.118;27.258;2023-09-07T14:53:03;6.35;;;4.57;;